Tuesday, January 15, 2019, 6:27 PM EST
Back to Local

KWRI, Mcguire Air Force Base

Location: Trenton, NJ, United States Lat: 40.017
Local Time: 6:27 PM EST (23:27 GMT) Lon: -74.6
Time Zone: US/Eastern Elev: 134 ft

Show me the last for .
Show Decoded

2019-01-15 17:56 METAR KWRI 152256Z AUTO 00000KT 10SM CLR 00/M09 A3011 RMK AO2 SLP198 T00001087 $
                 =
2019-01-15 16:56 METAR KWRI 152156Z AUTO 31004KT 10SM CLR 01/M08 A3010 RMK AO2 SLP194 T00071085 $
                 =
2019-01-15 15:56 METAR KWRI 152056Z AUTO 31006KT 10SM CLR 02/M08 A3010 RMK AO2 SLP194 T00211083 $
                 =
2019-01-15 14:56 METAR KWRI 151956Z AUTO 29006KT 10SM FEW180 03/M09 A3010 RMK AO2 SLP194
                 T00261090 $ =
2019-01-15 13:56 METAR KWRI 151856Z AUTO 32008KT 10SM FEW220 03/M10 A3010 RMK AO2 SLP194
                 T00301099 $ =
2019-01-15 12:56 METAR KWRI 151756Z AUTO 30007KT 10SM CLR 02/M10 A3010 RMK AO2 SLP194 T00221103
                 10025 21060 58019 $ =
2019-01-15 11:56 METAR KWRI 151656Z AUTO 31009KT 10SM CLR 02/M10 A3013 RMK AO2 SLP204 T00221103 $
                 =
2019-01-15 10:56 METAR KWRI 151556Z AUTO 31006KT 10SM CLR 01/M11 A3016 RMK AO2 SLP215 T00081110 $
                 =
2019-01-15 09:56 METAR KWRI 151456Z AUTO 33012KT 10SM CLR M01/M11 A3016 RMK AO2 SLP215 T10071106
                 53016 $ =
2019-01-15 08:56 METAR KWRI 151356Z AUTO 31007KT 10SM CLR M02/M10 A3014 RMK AO2 SLP208 T10221098
                 $ =
2019-01-15 07:56 METAR KWRI 151256Z AUTO 31005KT 10SM CLR M05/M10 A3012 RMK AO2 SLP201 T10551103
                 $ =
2019-01-15 06:56 METAR KWRI 151156Z AUTO 00000KT 10SM CLR M06/M11 A3011 RMK AO2 SLP198 T10601106
                 11048 21071 53008 $ =
2019-01-15 05:56 METAR KWRI 151056Z AUTO 29005KT 10SM CLR M06/M11 A3010 RMK AO2 SLP195 T10561106
                 $ =
2019-01-15 04:56 METAR KWRI 150956Z AUTO 29006KT 10SM CLR M05/M11 A3009 RMK AO2 SLP191 T10501108
                 $ =
2019-01-15 03:56 METAR KWRI 150856Z AUTO 29006KT 10SM CLR M06/M11 A3009 RMK AO2 SLP191 T10581108
                 58005 $ =
2019-01-15 02:56 METAR KWRI 150756Z AUTO 26005KT 10SM CLR M06/M10 A3011 RMK AO2 SLP198 T10581102
                 $ =
2019-01-15 01:56 METAR KWRI 150656Z AUTO 28003KT 10SM CLR M05/M10 A3011 RMK AO2 SLP198 T10511103
                 $ =
2019-01-15 00:56 METAR KWRI 150556Z AUTO 00000KT 10SM CLR M07/M10 A3011 RMK AO2 SLP198 T10661101
                 11052 21075 58006 $ =
2019-01-14 23:56 METAR KWRI 150456Z AUTO 26003KT 10SM CLR M07/M10 A3012 RMK AO2 SLP201 T10721101
                 400051072 $ =
2019-01-14 22:56 METAR KWRI 150356Z AUTO 00000KT 10SM CLR M06/M10 A3013 RMK AO2 SLP205 T10651104
                 $ =
2019-01-14 21:56 METAR KWRI 150256Z AUTO 00000KT 10SM CLR M06/M10 A3013 RMK AO2 SLP205 T10651104
                 55004 $ =
2019-01-14 20:56 METAR KWRI 150156Z AUTO 25004KT 10SM CLR M06/M10 A3012 RMK AO2 SLP201 T10631102
                 $ =
2019-01-14 19:56 METAR KWRI 150056Z AUTO 00000KT 10SM CLR M06/M10 A3012 RMK AO2 SLP201 T10611103
                 $ =
2019-01-14 18:56 METAR KWRI 142356Z AUTO 00000KT 10SM CLR M05/M10 A3014 RMK AO2 SLP208 T10511105
                 10005 21051 55004 $ =

Support USWX by starting your Amazon purchase here.